Gurli — SLEG — position and weather

sailwx.info

Track history (hours):
 
Tides and Currents Weather Stations Pressure Air Temp Water Temp Dewpoint Dewpoint Depression Visibility Wind Speed Wind Dir Waves Ship Positions

Gurli

Last reported at 2017-Oct-18 11:30 UTC. Time now 2017-Oct-18 11:38 UTC.
Position N 59°20' E 018°05'.

Length 21 m.

Type: Passenger vessel. MMSI: 265687640.

Date/timePositionNaut miles runAvg speedWind from/ knotsBaromVisibWave heightAir tempDewpointWater temp
2017-Oct-18 11:30N 59°20' E 018°05'2 3.1
2017-Oct-18 11:00N 59°19' E 018°07'0 0.0
2017-Oct-18 10:30N 59°19' E 018°07'1 2.6
2017-Oct-18 10:00N 59°20' E 018°05'2 4.0
2017-Oct-18 09:30N 59°19' E 018°09'1 2.6
2017-Oct-18 09:00N 59°21' E 018°09'2 3.6
2017-Oct-18 08:30N 59°19' E 018°07'2 3.4
2017-Oct-18 08:00N 59°20' E 018°05'2 3.4
2017-Oct-18 07:29N 59°19' E 018°07'2 3.6
2017-Oct-18 07:00N 59°21' E 018°08'2 3.2
2017-Oct-18 06:29N 59°19' E 018°09'3 4.3
2017-Oct-18 05:53N 59°20' E 018°05'2 2.6
2017-Oct-18 05:01N 59°21' E 018°09'2 4.2
2017-Oct-18 04:39N 59°19' E 018°10'1 6.2
2017-Oct-18 04:29N 59°19' E 018°08'2 1.4
2017-Oct-18 03:20N 59°20' E 018°05'0 0.0
2017-Oct-18 02:58N 59°20' E 018°05'0 0.0
2017-Oct-18 02:19N 59°20' E 018°05'0 0.0
2017-Oct-18 01:46N 59°20' E 018°05'0 0.0
2017-Oct-18 01:28N 59°20' E 018°05'0 0.0
2017-Oct-18 00:58N 59°20' E 018°05'0 0.0
2017-Oct-18 00:28N 59°20' E 018°05'0 0.0
2017-Oct-17 23:58N 59°20' E 018°05'0 0.0
2017-Oct-17 23:28N 59°20' E 018°05'0 0.0
2017-Oct-17 22:58N 59°20' E 018°05'0 0.0
2017-Oct-17 22:28N 59°20' E 018°05'0 0.0
2017-Oct-17 21:58N 59°20' E 018°05'0 0.0
2017-Oct-17 21:28N 59°20' E 018°05'0 0.0
2017-Oct-17 20:58N 59°20' E 018°05'0 0.0
2017-Oct-17 20:28N 59°20' E 018°05'0 0.0
2017-Oct-17 19:58N 59°20' E 018°05'0 0.0
2017-Oct-17 19:28N 59°20' E 018°05'1 2.8
2017-Oct-17 18:58N 59°19' E 018°07'1 1.6
2017-Oct-17 18:21N 59°20' E 018°06'1 1.5
2017-Oct-17 18:00N 59°20' E 018°05'2 4.9
2017-Oct-17 17:30N 59°19' E 018°09'2 4.2
2017-Oct-17 16:59N 59°20' E 018°05'1 2.6
2017-Oct-17 16:29N 59°19' E 018°07'2 3.1
2017-Oct-17 15:55N 59°21' E 018°08'2 4.0
2017-Oct-17 15:29N 59°19' E 018°10'2 4.6
2017-Oct-17 15:00N 59°20' E 018°05'1 1.9
2017-Oct-17 14:30N 59°19' E 018°07'2 3.7
2017-Oct-17 14:00N 59°20' E 018°09'1 1.9
2017-Oct-17 13:30N 59°19' E 018°10'2 4.3
2017-Oct-17 13:00N 59°20' E 018°05'0 0.7
2017-Oct-17 12:29N 59°20' E 018°05'0 0.0
2017-Oct-17 11:59N 59°20' E 018°05'0 0.0
2017-Oct-17 11:30N 59°20' E 018°05'2 3.1
2017-Oct-17 11:00N 59°19' E 018°07'0 0.1
2017-Oct-17 10:30N 59°19' E 018°07'1 3.0
2017-Oct-17 10:00N 59°20' E 018°05'2 4.3
2017-Oct-17 09:30N 59°19' E 018°09'1 2.6
2017-Oct-17 08:59N 59°21' E 018°09'2 3.6
2017-Oct-17 08:30N 59°19' E 018°07'2 3.4
2017-Oct-17 08:00N 59°20' E 018°05'2 3.4
2017-Oct-17 07:30N 59°19' E 018°07'2 3.6
2017-Oct-17 07:00N 59°21' E 018°08'2 3.6
2017-Oct-17 06:30N 59°19' E 018°10'3 4.9
2017-Oct-17 05:58N 59°20' E 018°05'3 5.7
2017-Oct-17 05:30N 59°19' E 018°10'1 2.9
2017-Oct-17 05:00N 59°21' E 018°09'2 3.5
2017-Oct-17 04:30N 59°19' E 018°07'2 3.4
2017-Oct-17 04:00N 59°20' E 018°05'0 0.3
2017-Oct-17 03:09N 59°20' E 018°05'0 0.0
2017-Oct-17 02:57N 59°20' E 018°05'0 0.0
2017-Oct-17 02:27N 59°20' E 018°05'0 0.0
2017-Oct-17 01:51N 59°20' E 018°05'0 0.0
2017-Oct-17 01:27N 59°20' E 018°05'0 0.0
2017-Oct-17 01:00N 59°20' E 018°05'0 0.0
2017-Oct-17 00:30N 59°20' E 018°05'0 0.0
2017-Oct-17 00:00N 59°20' E 018°05'0 0.0
2017-Oct-16 23:30N 59°20' E 018°05'0 0.0
2017-Oct-16 23:00N 59°20' E 018°05'0 0.0
2017-Oct-16 22:30N 59°20' E 018°05'0 0.0
2017-Oct-16 22:00N 59°20' E 018°05'0 0.0
2017-Oct-16 21:30N 59°20' E 018°05'0 0.0
2017-Oct-16 21:00N 59°20' E 018°05'0 0.0
2017-Oct-16 20:27N 59°20' E 018°05'0 0.0
2017-Oct-16 20:00N 59°20' E 018°05'0 0.0
2017-Oct-16 19:30N 59°20' E 018°05'1 2.5
2017-Oct-16 19:00N 59°19' E 018°07'0 0.1
2017-Oct-16 18:30N 59°19' E 018°07'1 2.9
2017-Oct-16 18:00N 59°20' E 018°05'3 5.3
2017-Oct-16 17:30N 59°19' E 018°10'2 4.3
2017-Oct-16 17:00N 59°20' E 018°05'1 1.7
2017-Oct-16 16:29N 59°19' E 018°07'2 4.2
2017-Oct-16 16:00N 59°21' E 018°09'1 3.0
2017-Oct-16 15:30N 59°19' E 018°10'2 4.3
2017-Oct-16 15:00N 59°20' E 018°05'2 2.1
2017-Oct-16 14:00N 59°20' E 018°09'1 1.8
2017-Oct-16 13:30N 59°19' E 018°10'2 4.4
2017-Oct-16 13:00N 59°20' E 018°05'0 0.8
2017-Oct-16 12:30N 59°20' E 018°05'0 0.0
2017-Oct-16 12:00N 59°20' E 018°05'0 0.0
2017-Oct-16 11:30N 59°20' E 018°05'1 2.9
2017-Oct-16 11:00N 59°19' E 018°07'0 0.3
2017-Oct-16 10:30N 59°19' E 018°07'1 2.1
2017-Oct-16 10:01N 59°19' E 018°06'2 3.6
2017-Oct-16 09:30N 59°19' E 018°09'1 2.6
2017-Oct-16 09:00N 59°21' E 018°09'2 3.5
2017-Oct-16 08:30N 59°19' E 018°07'2 3.2
2017-Oct-16 08:00N 59°20' E 018°05'2 3.4
2017-Oct-16 07:30N 59°19' E 018°07'2 3.4
2017-Oct-16 07:00N 59°21' E 018°09'1 2.8
2017-Oct-16 06:29N 59°19' E 018°09'3 5.2
2017-Oct-16 05:59N 59°20' E 018°05'3 5.4
2017-Oct-16 05:29N 59°19' E 018°10'1 2.9
2017-Oct-16 05:00N 59°20' E 018°09'2 3.3
2017-Oct-16 04:30N 59°19' E 018°08'2 3.0
2017-Oct-16 04:00N 59°20' E 018°05'0 0.1
2017-Oct-16 03:31N 59°20' E 018°05'0 0.0
2017-Oct-16 03:00N 59°20' E 018°05'0 0.0
2017-Oct-16 02:30N 59°20' E 018°05'0 0.0
2017-Oct-16 02:00N 59°20' E 018°05'0 0.0
2017-Oct-16 01:30N 59°20' E 018°05'0 0.0
2017-Oct-16 01:00N 59°20' E 018°05'0 0.0
2017-Oct-16 00:30N 59°20' E 018°05'0 0.0
2017-Oct-15 23:57N 59°20' E 018°05'0 0.0
2017-Oct-15 23:30N 59°20' E 018°05'0 0.0
2017-Oct-15 23:00N 59°20' E 018°05'0 0.0
2017-Oct-15 22:30N 59°20' E 018°05'0 0.0
2017-Oct-15 22:00N 59°20' E 018°05'0 0.0
2017-Oct-15 21:30N 59°20' E 018°05'0 0.0
2017-Oct-15 21:00N 59°20' E 018°05'0 0.0
2017-Oct-15 20:30N 59°20' E 018°05'0 0.0
2017-Oct-15 20:00N 59°20' E 018°05'0 0.0
2017-Oct-15 19:30N 59°20' E 018°05'0 0.0
2017-Oct-15 19:00N 59°20' E 018°05'0 0.0
2017-Oct-15 18:30N 59°20' E 018°05'0 0.0
2017-Oct-15 18:00N 59°20' E 018°05'0 0.0
2017-Oct-15 17:24N 59°20' E 018°05'0 0.0
2017-Oct-15 17:00N 59°20' E 018°05'0 0.0
2017-Oct-15 16:30N 59°20' E 018°05'2 3.1
2017-Oct-15 16:00N 59°19' E 018°07'2 3.3
2017-Oct-15 15:27N 59°21' E 018°09'2 3.5
2017-Oct-15 15:00N 59°19' E 018°08'0 0.1
2017-Oct-15 14:00N 59°19' E 018°08'2 3.8
2017-Oct-15 13:30N 59°20' E 018°05'2 3.7
2017-Oct-15 13:00N 59°19' E 018°08'2 3.2
2017-Oct-15 12:30N 59°21' E 018°09'2 3.5
2017-Oct-15 12:00N 59°19' E 018°08'2 3.5
2017-Oct-15 11:30N 59°20' E 018°05'0 0.0
2017-Oct-15 10:59N 59°20' E 018°05'2 3.6
2017-Oct-15 10:31N 59°19' E 018°07'1 2.5
2017-Oct-15 10:01N 59°20' E 018°05'1 1.9
2017-Oct-15 09:30N 59°19' E 018°07'2 3.5
2017-Oct-15 08:59N 59°21' E 018°09'2 3.3
2017-Oct-15 08:30N 59°19' E 018°08'2 3.7
2017-Oct-15 08:00N 59°20' E 018°05'0 0.0
2017-Oct-15 07:30N 59°20' E 018°05'0 0.0
2017-Oct-15 07:00N 59°20' E 018°05'0 0.0
2017-Oct-15 06:24N 59°20' E 018°05'0 0.0
2017-Oct-15 05:54N 59°20' E 018°05'0 0.0
2017-Oct-15 05:30N 59°20' E 018°05'0 0.0
2017-Oct-15 04:57N 59°20' E 018°05'0 0.0
2017-Oct-15 04:30N 59°20' E 018°05'0 0.0
2017-Oct-15 04:00N 59°20' E 018°05'0 0.0
2017-Oct-15 03:30N 59°20' E 018°05'0 0.0
2017-Oct-15 03:00N 59°20' E 018°05'0 0.0
2017-Oct-15 02:24N 59°20' E 018°05'0 0.0
2017-Oct-15 02:00N 59°20' E 018°05'0 0.0
2017-Oct-15 01:30N 59°20' E 018°05'0 0.0
2017-Oct-15 01:00N 59°20' E 018°05'0 0.0
2017-Oct-15 00:30N 59°20' E 018°05'0 0.0
2017-Oct-15 00:00N 59°20' E 018°05'0 0.0
2017-Oct-14 23:30N 59°20' E 018°05'0 0.0
2017-Oct-14 23:00N 59°20' E 018°05'0 0.0
2017-Oct-14 22:30N 59°20' E 018°05'0 0.0
2017-Oct-14 22:00N 59°20' E 018°05'0 0.0
2017-Oct-14 21:30N 59°20' E 018°05'0 0.0
2017-Oct-14 21:00N 59°20' E 018°05'0 0.0
2017-Oct-14 20:30N 59°20' E 018°05'0 0.0
2017-Oct-14 20:00N 59°20' E 018°05'0 0.0
2017-Oct-14 19:30N 59°20' E 018°05'0 0.0
2017-Oct-14 19:00N 59°20' E 018°05'0 0.0
2017-Oct-14 18:30N 59°20' E 018°05'0 0.0
2017-Oct-14 18:00N 59°20' E 018°05'0 0.0
2017-Oct-14 17:30N 59°20' E 018°05'0 0.0
2017-Oct-14 17:00N 59°20' E 018°05'0 0.0
2017-Oct-14 16:30N 59°20' E 018°05'2 3.1
2017-Oct-14 16:00N 59°19' E 018°07'2 3.2
2017-Oct-14 15:30N 59°20' E 018°09'1 2.6
2017-Oct-14 15:00N 59°19' E 018°08'2 4.1
2017-Oct-14 14:30N 59°20' E 018°05'2 4.0
2017-Oct-14 14:00N 59°19' E 018°08'2 3.8
2017-Oct-14 13:29N 59°20' E 018°05'2 3.7
2017-Oct-14 13:00N 59°19' E 018°08'2 3.3
2017-Oct-14 12:30N 59°21' E 018°09'2 3.4
2017-Oct-14 12:00N 59°19' E 018°08'2 3.4
2017-Oct-14 11:28N 59°20' E 018°05'0 0.0
2017-Oct-14 10:58N 59°20' E 018°05'2 3.7
2017-Oct-14 10:30N 59°19' E 018°07'1 2.6
2017-Oct-14 10:00N 59°20' E 018°05'1 2.0
2017-Oct-14 09:30N 59°19' E 018°07'2 3.4
2017-Oct-14 08:59N 59°21' E 018°09'2 3.4
2017-Oct-14 08:30N 59°19' E 018°08'2 3.6
2017-Oct-14 07:59N 59°20' E 018°05'0 0.0
2017-Oct-14 07:29N 59°20' E 018°05'0 0.0
2017-Oct-14 06:59N 59°20' E 018°05'0 0.0
2017-Oct-14 06:29N 59°20' E 018°05'0 0.0
2017-Oct-14 05:59N 59°20' E 018°05'0 0.0
2017-Oct-14 05:29N 59°20' E 018°05'0 0.0
2017-Oct-14 04:59N 59°20' E 018°05'0 0.0
2017-Oct-14 04:29N 59°20' E 018°05'0 0.0
2017-Oct-14 03:59N 59°20' E 018°05'0 0.0
2017-Oct-14 03:23N 59°20' E 018°05'0 0.0
2017-Oct-14 02:59N 59°20' E 018°05'0 0.0
2017-Oct-14 02:29N 59°20' E 018°05'0 0.0
2017-Oct-14 01:59N 59°20' E 018°05'0 0.0
2017-Oct-14 01:29N 59°20' E 018°05'0 0.0
2017-Oct-14 00:59N 59°20' E 018°05'0 0.0
2017-Oct-14 00:29N 59°20' E 018°05'0 0.0
2017-Oct-13 23:59N 59°20' E 018°05'0 0.0
2017-Oct-13 23:29N 59°20' E 018°05'0 0.0
2017-Oct-13 22:59N 59°20' E 018°05'0 0.0
2017-Oct-13 22:26N 59°20' E 018°05'0 0.0
2017-Oct-13 21:59N 59°20' E 018°05'0 0.0
2017-Oct-13 21:29N 59°20' E 018°05'0 0.0
2017-Oct-13 20:59N 59°20' E 018°05'0 0.0
2017-Oct-13 20:29N 59°20' E 018°05'0 0.0
2017-Oct-13 19:59N 59°20' E 018°05'0 0.0
2017-Oct-13 19:29N 59°20' E 018°05'1 2.9
2017-Oct-13 19:00N 59°19' E 018°07'0 0.6
2017-Oct-13 18:30N 59°19' E 018°07'1 2.6
2017-Oct-13 18:00N 59°20' E 018°05'3 5.1
2017-Oct-13 17:30N 59°19' E 018°10'2 4.4
2017-Oct-13 17:00N 59°20' E 018°05'1 2.4
2017-Oct-13 16:30N 59°19' E 018°07'2 3.6
2017-Oct-13 16:00N 59°21' E 018°09'2 2.9
2017-Oct-13 15:29N 59°19' E 018°10'2 4.6
2017-Oct-13 15:00N 59°20' E 018°05'1 1.9
2017-Oct-13 14:30N 59°19' E 018°07'2 4.1
2017-Oct-13 14:00N 59°20' E 018°09'1 2.8
2017-Oct-13 13:31N 59°19' E 018°10'2 4.6
2017-Oct-13 13:00N 59°20' E 018°05'0 0.5
2017-Oct-13 12:30N 59°20' E 018°05'0 0.0
2017-Oct-13 12:00N 59°20' E 018°05'0 0.0
2017-Oct-13 11:30N 59°20' E 018°05'0 0.0
2017-Oct-13 11:00N 59°20' E 018°05'0 0.0
2017-Oct-13 10:30N 59°20' E 018°05'0 0.0
2017-Oct-13 10:00N 59°20' E 018°05'0 0.0
2017-Oct-13 09:30N 59°20' E 018°05'0 0.0
2017-Oct-13 09:00N 59°20' E 018°05'0 0.0
2017-Oct-13 08:30N 59°20' E 018°05'0 0.0
2017-Oct-13 08:00N 59°20' E 018°05'0 0.0
2017-Oct-13 07:30N 59°20' E 018°05'1 1.5
2017-Oct-13 07:00N 59°19' E 018°06'2 3.9
2017-Oct-13 06:30N 59°20' E 018°10'0 0.9
2017-Oct-13 06:00N 59°19' E 018°10'2 4.0
2017-Oct-13 05:30N 59°19' E 018°06'1 2.0
2017-Oct-13 04:58N 59°19' E 018°07'1 1.8
2017-Oct-13 04:29N 59°19' E 018°06'1 1.2
2017-Oct-13 03:51N 59°20' E 018°05'0 0.0
2017-Oct-13 03:27N 59°20' E 018°05'0 0.0
2017-Oct-13 02:57N 59°20' E 018°05'0 0.0
2017-Oct-13 02:30N 59°20' E 018°05'0 0.0
2017-Oct-13 01:57N 59°20' E 018°05'0 0.0
2017-Oct-13 01:30N 59°20' E 018°05'0 0.0
2017-Oct-13 01:00N 59°20' E 018°05'0 0.0
2017-Oct-13 00:30N 59°20' E 018°05'0 0.0
2017-Oct-13 00:00N 59°20' E 018°05'0 0.0
2017-Oct-12 23:30N 59°20' E 018°05'0 0.0
2017-Oct-12 23:00N 59°20' E 018°05'0 0.0
2017-Oct-12 22:30N 59°20' E 018°05'0 0.0
2017-Oct-12 22:00N 59°20' E 018°05'0 0.0
2017-Oct-12 21:30N 59°20' E 018°05'0 0.0
2017-Oct-12 21:00N 59°20' E 018°05'0 0.0
2017-Oct-12 20:30N 59°20' E 018°05'0 0.0
2017-Oct-12 19:57N 59°20' E 018°05'0 0.0
2017-Oct-12 19:27N 59°20' E 018°05'1 2.8
2017-Oct-12 19:00N 59°19' E 018°07'0 0.3
2017-Oct-12 18:29N 59°19' E 018°07'1 2.0
2017-Oct-12 18:00N 59°20' E 018°05'2 4.3
2017-Oct-12 17:29N 59°19' E 018°10'2 4.7
2017-Oct-12 16:58N 59°20' E 018°05'1 2.7
2017-Oct-12 16:30N 59°19' E 018°07'2 3.5
2017-Oct-12 15:59N 59°21' E 018°09'2 3.2
2017-Oct-12 15:30N 59°19' E 018°10'2 4.3
2017-Oct-12 15:01N 59°20' E 018°05'1 1.8
2017-Oct-12 14:29N 59°19' E 018°07'2 4.0
2017-Oct-12 14:00N 59°21' E 018°09'1 2.9
2017-Oct-12 13:30N 59°19' E 018°10'3 4.8
2017-Oct-12 12:58N 59°20' E 018°05'0 0.3
2017-Oct-12 12:30N 59°20' E 018°05'0 0.0
2017-Oct-12 11:42N 59°20' E 018°05'0 0.0
2017-Oct-12 11:30N 59°20' E 018°05'1 2.5
2017-Oct-12 11:00N 59°19' E 018°07'0 0.9
2017-Oct-12 10:30N 59°19' E 018°07'2 3.1
2017-Oct-12 10:00N 59°20' E 018°05'2 4.5
2017-Oct-12 09:29N 59°19' E 018°09'1 3.0
2017-Oct-12 09:00N 59°21' E 018°09'2 3.6
2017-Oct-12 08:30N 59°19' E 018°07'2 3.3
2017-Oct-12 07:59N 59°20' E 018°05'2 3.9
2017-Oct-12 07:28N 59°19' E 018°08'2 3.6
2017-Oct-12 07:00N 59°21' E 018°08'2 3.2
2017-Oct-12 06:29N 59°19' E 018°08'2 4.2
2017-Oct-12 05:59N 59°20' E 018°05'2 4.8
2017-Oct-12 05:28N 59°20' E 018°09'1 1.7
2017-Oct-12 05:00N 59°20' E 018°09'2 3.1
2017-Oct-12 04:30N 59°19' E 018°07'2 3.3
2017-Oct-12 04:00N 59°20' E 018°05'0 0.4
2017-Oct-12 03:24N 59°20' E 018°05'0 0.0
2017-Oct-12 03:00N 59°20' E 018°05'0 0.0
2017-Oct-12 02:24N 59°20' E 018°05'0 0.0
2017-Oct-12 02:00N 59°20' E 018°05'0 0.0
2017-Oct-12 01:30N 59°20' E 018°05'0 0.0
2017-Oct-12 01:00N 59°20' E 018°05'0 0.0
2017-Oct-12 00:24N 59°20' E 018°05'0 0.0
2017-Oct-12 00:00N 59°20' E 018°05'0 0.0
2017-Oct-11 23:30N 59°20' E 018°05'0 0.0
2017-Oct-11 23:00N 59°20' E 018°05'0 0.0
2017-Oct-11 22:30N 59°20' E 018°05'0 0.0
2017-Oct-11 22:00N 59°20' E 018°05'0 0.0
2017-Oct-11 21:24N 59°20' E 018°05'0 0.0
2017-Oct-11 20:54N 59°20' E 018°05'0 0.0
2017-Oct-11 20:30N 59°20' E 018°05'0 0.0
2017-Oct-11 20:00N 59°20' E 018°05'0 0.0
2017-Oct-11 19:30N 59°20' E 018°05'2 3.0
2017-Oct-11 18:59N 59°19' E 018°07'0 0.9
2017-Oct-11 18:30N 59°19' E 018°07'1 1.9
2017-Oct-11 18:00N 59°20' E 018°05'2 4.2
2017-Oct-11 17:30N 59°19' E 018°09'2 4.5
2017-Oct-11 16:59N 59°20' E 018°05'0 0.0
2017-Oct-10 23:59N 59°20' E 018°05'0 0.0
2017-Oct-10 23:29N 59°20' E 018°05'0 0.0
2017-Oct-10 22:59N 59°20' E 018°05'0 0.0
2017-Oct-10 22:29N 59°20' E 018°05'0 0.0
2017-Oct-10 21:59N 59°20' E 018°05'0 0.0
2017-Oct-10 21:17N 59°20' E 018°05'0 0.0
2017-Oct-10 20:59N 59°20' E 018°05'0 0.0
2017-Oct-10 20:23N 59°20' E 018°05'0 0.0
2017-Oct-10 19:59N 59°20' E 018°05'0 0.0
2017-Oct-10 19:29N 59°20' E 018°05'2 3.1
2017-Oct-10 18:59N 59°19' E 018°08'1 1.2
2017-Oct-10 18:30N 59°19' E 018°06'1 2.2
2017-Oct-10 18:00N 59°20' E 018°05'2 4.9
2017-Oct-10 17:30N 59°19' E 018°10'2 4.2
2017-Oct-10 17:00N 59°20' E 018°06'1 2.2
2017-Oct-10 16:29N 59°19' E 018°07'2 3.7
2017-Oct-10 16:00N 59°21' E 018°09'2 2.9
2017-Oct-10 15:29N 59°19' E 018°10'2 4.5
2017-Oct-10 14:59N 59°20' E 018°05'2 2.1
2017-Oct-10 14:00N 59°20' E 018°09'1 2.3
2017-Oct-10 13:29N 59°19' E 018°10'2 4.4
2017-Oct-10 13:00N 59°20' E 018°05'0 0.8
2017-Oct-10 12:28N 59°20' E 018°05'0 0.0
2017-Oct-10 11:52N 59°20' E 018°05'0 0.0
2017-Oct-10 11:28N 59°20' E 018°05'1 2.9
2017-Oct-10 11:00N 59°19' E 018°07'0 0.4
2017-Oct-10 10:30N 59°19' E 018°07'1 2.3
2017-Oct-10 10:00N 59°20' E 018°05'2 4.0
2017-Oct-10 09:29N 59°19' E 018°09'1 3.0
2017-Oct-10 09:00N 59°21' E 018°09'2 3.4
2017-Oct-10 08:29N 59°19' E 018°07'2 3.2
2017-Oct-10 07:57N 59°20' E 018°05'2 3.9
2017-Oct-10 07:30N 59°19' E 018°07'2 3.3
2017-Oct-10 06:59N 59°21' E 018°08'2 3.5
2017-Oct-10 06:30N 59°19' E 018°10'3 5.0
2017-Oct-10 05:58N 59°20' E 018°05'2 4.6
2017-Oct-10 05:30N 59°19' E 018°09'1 2.8
2017-Oct-10 04:59N 59°21' E 018°09'2 3.4
2017-Oct-10 04:28N 59°19' E 018°07'2 3.0
2017-Oct-10 03:58N 59°20' E 018°05'0 0.0
2017-Oct-10 03:22N 59°20' E 018°05'0 0.0
2017-Oct-10 02:58N 59°20' E 018°05'0 0.0
2017-Oct-10 02:28N 59°20' E 018°05'0 0.0
2017-Oct-10 01:46N 59°20' E 018°05'0 0.0
2017-Oct-10 01:28N 59°20' E 018°05'0 0.0
2017-Oct-10 00:58N 59°20' E 018°05'0 0.0
2017-Oct-10 00:22N 59°20' E 018°05'0 0.0
2017-Oct-09 23:58N 59°20' E 018°05'0 0.0
2017-Oct-09 23:28N 59°20' E 018°05'0 0.0
2017-Oct-09 22:58N 59°20' E 018°05'0 0.0
2017-Oct-09 22:28N 59°20' E 018°05'0 0.0
2017-Oct-09 21:52N 59°20' E 018°05'0 0.0
2017-Oct-09 21:28N 59°20' E 018°05'0 0.0
2017-Oct-09 20:58N 59°20' E 018°05'0 0.0
2017-Oct-09 20:28N 59°20' E 018°05'0 0.0
2017-Oct-09 19:58N 59°20' E 018°05'0 0.0
2017-Oct-09 19:28N 59°20' E 018°05'1 2.9
2017-Oct-09 19:00N 59°19' E 018°07'0 0.4
2017-Oct-09 18:30N 59°19' E 018°07'1 1.7
2017-Oct-09 18:00N 59°20' E 018°06'2 4.0
2017-Oct-09 17:30N 59°19' E 018°09'2 4.4
2017-Oct-09 17:00N 59°20' E 018°05'1 2.1
2017-Oct-09 16:30N 59°19' E 018°07'2 4.0
2017-Oct-09 16:00N 59°21' E 018°09'1 3.0
2017-Oct-09 15:30N 59°19' E 018°10'2 4.3
2017-Oct-09 14:59N 59°20' E 018°05'1 1.7
2017-Oct-09 14:30N 59°19' E 018°06'2 3.8
2017-Oct-09 14:00N 59°20' E 018°09'1 2.0
2017-Oct-09 13:30N 59°19' E 018°10'2 4.3
2017-Oct-09 13:00N 59°20' E 018°05'0 0.6
2017-Oct-09 12:25N 59°20' E 018°05'0 0.0
2017-Oct-09 11:49N 59°20' E 018°05'0 0.0
2017-Oct-09 11:24N 59°20' E 018°05'1 3.4
2017-Oct-09 10:59N 59°19' E 018°07'0 0.3
2017-Oct-09 10:30N 59°19' E 018°07'2 3.4
2017-Oct-09 10:00N 59°20' E 018°05'3 4.9
2017-Oct-09 09:29N 59°19' E 018°09'1 1.7
2017-Oct-09 08:58N 59°20' E 018°09'2 3.8
2017-Oct-09 08:30N 59°19' E 018°07'1 2.3
2017-Oct-09 07:53N 59°20' E 018°05'2 4.2
2017-Oct-09 07:28N 59°19' E 018°07'2 3.8
2017-Oct-09 07:00N 59°21' E 018°08'2 3.5
2017-Oct-09 06:30N 59°19' E 018°09'3 5.0
2017-Oct-09 05:59N 59°20' E 018°05'2 4.9
2017-Oct-09 05:28N 59°19' E 018°09'1 2.9
2017-Oct-09 04:59N 59°21' E 018°09'2 3.4
2017-Oct-09 04:30N 59°19' E 018°08'2 3.4
2017-Oct-09 03:59N 59°20' E 018°05'0 0.0
2017-Oct-09 03:17N 59°20' E 018°05'0 0.0
2017-Oct-09 02:59N 59°20' E 018°05'0 0.0
2017-Oct-09 02:29N 59°20' E 018°05'0 0.0
2017-Oct-09 01:59N 59°20' E 018°05'0 0.0
2017-Oct-09 01:29N 59°20' E 018°05'0 0.0
2017-Oct-09 00:59N 59°20' E 018°05'0 0.0
2017-Oct-09 00:29N 59°20' E 018°05'0 0.0
2017-Oct-08 23:59N 59°20' E 018°05'0 0.0
2017-Oct-08 23:23N 59°20' E 018°05'0 0.0
2017-Oct-08 22:59N 59°20' E 018°05'0 0.0
2017-Oct-08 22:29N 59°20' E 018°05'0 0.0
2017-Oct-08 21:59N 59°20' E 018°05'0 0.0
2017-Oct-08 21:29N 59°20' E 018°05'0 0.0
2017-Oct-08 20:59N 59°20' E 018°05'0 0.0
2017-Oct-08 20:29N 59°20' E 018°05'0 0.0
2017-Oct-08 19:59N 59°20' E 018°05'0 0.0
2017-Oct-08 19:29N 59°20' E 018°05'0 0.0
2017-Oct-08 18:59N 59°20' E 018°05'0 0.0
2017-Oct-08 18:23N 59°20' E 018°05'0 0.0
2017-Oct-08 17:59N 59°20' E 018°05'0 0.0
2017-Oct-08 17:29N 59°20' E 018°05'0 0.0
2017-Oct-08 16:59N 59°20' E 018°05'0 0.3
2017-Oct-08 16:29N 59°20' E 018°05'2 3.3
2017-Oct-08 15:59N 59°19' E 018°07'2 3.8
2017-Oct-08 15:30N 59°21' E 018°09'2 3.1
2017-Oct-08 14:59N 59°19' E 018°08'2 4.1
2017-Oct-08 14:30N 59°20' E 018°05'2 4.0
2017-Oct-08 14:00N 59°19' E 018°08'2 3.9
2017-Oct-08 13:29N 59°20' E 018°05'2 3.4
2017-Oct-08 13:00N 59°19' E 018°07'2 3.3
2017-Oct-08 12:30N 59°21' E 018°09'2 3.1
2017-Oct-08 12:00N 59°19' E 018°08'2 3.7
2017-Oct-08 11:30N 59°20' E 018°05'  
Track history (hours):
 
Tides and Currents Weather Stations Pressure Air Temp Water Temp Dewpoint Dewpoint Depression Visibility Wind Speed Wind Dir Waves Ship Positions

Gurli

Last reported at 2017-Oct-18 11:30 UTC. Time now 2017-Oct-18 11:38 UTC.
Position N 59°20' E 018°05'.

Length 21 m.

Type: Passenger vessel. MMSI: 265687640.

Date/timePositionNaut miles runAvg speedWind from/ knotsBaromVisibWave heightAir tempDewpointWater temp
2017-Oct-18 11:30N 59°20' E 018°05'2 3.1
2017-Oct-18 11:00N 59°19' E 018°07'0 0.0
2017-Oct-18 10:30N 59°19' E 018°07'1 2.6
2017-Oct-18 10:00N 59°20' E 018°05'2 4.0
2017-Oct-18 09:30N 59°19' E 018°09'1 2.6
2017-Oct-18 09:00N 59°21' E 018°09'2 3.6
2017-Oct-18 08:30N 59°19' E 018°07'2 3.4
2017-Oct-18 08:00N 59°20' E 018°05'2 3.4
2017-Oct-18 07:29N 59°19' E 018°07'2 3.6
2017-Oct-18 07:00N 59°21' E 018°08'2 3.2
2017-Oct-18 06:29N 59°19' E 018°09'3 4.3
2017-Oct-18 05:53N 59°20' E 018°05'2 2.6
2017-Oct-18 05:01N 59°21' E 018°09'2 4.2
2017-Oct-18 04:39N 59°19' E 018°10'1 6.2
2017-Oct-18 04:29N 59°19' E 018°08'2 1.4
2017-Oct-18 03:20N 59°20' E 018°05'0 0.0
2017-Oct-18 02:58N 59°20' E 018°05'0 0.0
2017-Oct-18 02:19N 59°20' E 018°05'0 0.0
2017-Oct-18 01:46N 59°20' E 018°05'0 0.0
2017-Oct-18 01:28N 59°20' E 018°05'0 0.0
2017-Oct-18 00:58N 59°20' E 018°05'0 0.0
2017-Oct-18 00:28N 59°20' E 018°05'0 0.0
2017-Oct-17 23:58N 59°20' E 018°05'0 0.0
2017-Oct-17 23:28N 59°20' E 018°05'0 0.0
2017-Oct-17 22:58N 59°20' E 018°05'0 0.0
2017-Oct-17 22:28N 59°20' E 018°05'0 0.0
2017-Oct-17 21:58N 59°20' E 018°05'0 0.0
2017-Oct-17 21:28N 59°20' E 018°05'0 0.0
2017-Oct-17 20:58N 59°20' E 018°05'0 0.0
2017-Oct-17 20:28N 59°20' E 018°05'0 0.0
2017-Oct-17 19:58N 59°20' E 018°05'0 0.0
2017-Oct-17 19:28N 59°20' E 018°05'1 2.8
2017-Oct-17 18:58N 59°19' E 018°07'1 1.6
2017-Oct-17 18:21N 59°20' E 018°06'1 1.5
2017-Oct-17 18:00N 59°20' E 018°05'2 4.9
2017-Oct-17 17:30N 59°19' E 018°09'2 4.2
2017-Oct-17 16:59N 59°20' E 018°05'1 2.6
2017-Oct-17 16:29N 59°19' E 018°07'2 3.1
2017-Oct-17 15:55N 59°21' E 018°08'2 4.0
2017-Oct-17 15:29N 59°19' E 018°10'2 4.6
2017-Oct-17 15:00N 59°20' E 018°05'1 1.9
2017-Oct-17 14:30N 59°19' E 018°07'2 3.7
2017-Oct-17 14:00N 59°20' E 018°09'1 1.9
2017-Oct-17 13:30N 59°19' E 018°10'2 4.3
2017-Oct-17 13:00N 59°20' E 018°05'0 0.7
2017-Oct-17 12:29N 59°20' E 018°05'0 0.0
2017-Oct-17 11:59N 59°20' E 018°05'0 0.0
2017-Oct-17 11:30N 59°20' E 018°05'2 3.1
2017-Oct-17 11:00N 59°19' E 018°07'0 0.1
2017-Oct-17 10:30N 59°19' E 018°07'1 3.0
2017-Oct-17 10:00N 59°20' E 018°05'2 4.3
2017-Oct-17 09:30N 59°19' E 018°09'1 2.6
2017-Oct-17 08:59N 59°21' E 018°09'2 3.6
2017-Oct-17 08:30N 59°19' E 018°07'2 3.4
2017-Oct-17 08:00N 59°20' E 018°05'2 3.4
2017-Oct-17 07:30N 59°19' E 018°07'2 3.6
2017-Oct-17 07:00N 59°21' E 018°08'2 3.6
2017-Oct-17 06:30N 59°19' E 018°10'3 4.9
2017-Oct-17 05:58N 59°20' E 018°05'3 5.7
2017-Oct-17 05:30N 59°19' E 018°10'1 2.9
2017-Oct-17 05:00N 59°21' E 018°09'2 3.5
2017-Oct-17 04:30N 59°19' E 018°07'2 3.4
2017-Oct-17 04:00N 59°20' E 018°05'0 0.3
2017-Oct-17 03:09N 59°20' E 018°05'0 0.0
2017-Oct-17 02:57N 59°20' E 018°05'0 0.0
2017-Oct-17 02:27N 59°20' E 018°05'0 0.0
2017-Oct-17 01:51N 59°20' E 018°05'0 0.0
2017-Oct-17 01:27N 59°20' E 018°05'0 0.0
2017-Oct-17 01:00N 59°20' E 018°05'0 0.0
2017-Oct-17 00:30N 59°20' E 018°05'0 0.0
2017-Oct-17 00:00N 59°20' E 018°05'0 0.0
2017-Oct-16 23:30N 59°20' E 018°05'0 0.0
2017-Oct-16 23:00N 59°20' E 018°05'0 0.0
2017-Oct-16 22:30N 59°20' E 018°05'0 0.0
2017-Oct-16 22:00N 59°20' E 018°05'0 0.0
2017-Oct-16 21:30N 59°20' E 018°05'0 0.0
2017-Oct-16 21:00N 59°20' E 018°05'0 0.0
2017-Oct-16 20:27N 59°20' E 018°05'0 0.0
2017-Oct-16 20:00N 59°20' E 018°05'0 0.0
2017-Oct-16 19:30N 59°20' E 018°05'1 2.5
2017-Oct-16 19:00N 59°19' E 018°07'0 0.1
2017-Oct-16 18:30N 59°19' E 018°07'1 2.9
2017-Oct-16 18:00N 59°20' E 018°05'3 5.3
2017-Oct-16 17:30N 59°19' E 018°10'2 4.3
2017-Oct-16 17:00N 59°20' E 018°05'1 1.7
2017-Oct-16 16:29N 59°19' E 018°07'2 4.2
2017-Oct-16 16:00N 59°21' E 018°09'1 3.0
2017-Oct-16 15:30N 59°19' E 018°10'2 4.3
2017-Oct-16 15:00N 59°20' E 018°05'2 2.1
2017-Oct-16 14:00N 59°20' E 018°09'1 1.8
2017-Oct-16 13:30N 59°19' E 018°10'2 4.4
2017-Oct-16 13:00N 59°20' E 018°05'0 0.8
2017-Oct-16 12:30N 59°20' E 018°05'0 0.0
2017-Oct-16 12:00N 59°20' E 018°05'0 0.0
2017-Oct-16 11:30N 59°20' E 018°05'1 2.9
2017-Oct-16 11:00N 59°19' E 018°07'0 0.3
2017-Oct-16 10:30N 59°19' E 018°07'1 2.1
2017-Oct-16 10:01N 59°19' E 018°06'2 3.6
2017-Oct-16 09:30N 59°19' E 018°09'1 2.6
2017-Oct-16 09:00N 59°21' E 018°09'2 3.5
2017-Oct-16 08:30N 59°19' E 018°07'2 3.2
2017-Oct-16 08:00N 59°20' E 018°05'2 3.4
2017-Oct-16 07:30N 59°19' E 018°07'2 3.4
2017-Oct-16 07:00N 59°21' E 018°09'1 2.8
2017-Oct-16 06:29N 59°19' E 018°09'3 5.2
2017-Oct-16 05:59N 59°20' E 018°05'3 5.4
2017-Oct-16 05:29N 59°19' E 018°10'1 2.9
2017-Oct-16 05:00N 59°20' E 018°09'2 3.3
2017-Oct-16 04:30N 59°19' E 018°08'2 3.0
2017-Oct-16 04:00N 59°20' E 018°05'0 0.1
2017-Oct-16 03:31N 59°20' E 018°05'0 0.0
2017-Oct-16 03:00N 59°20' E 018°05'0 0.0
2017-Oct-16 02:30N 59°20' E 018°05'0 0.0
2017-Oct-16 02:00N 59°20' E 018°05'0 0.0
2017-Oct-16 01:30N 59°20' E 018°05'0 0.0
2017-Oct-16 01:00N 59°20' E 018°05'0 0.0
2017-Oct-16 00:30N 59°20' E 018°05'0 0.0
2017-Oct-15 23:57N 59°20' E 018°05'0 0.0
2017-Oct-15 23:30N 59°20' E 018°05'0 0.0
2017-Oct-15 23:00N 59°20' E 018°05'0 0.0
2017-Oct-15 22:30N 59°20' E 018°05'0 0.0
2017-Oct-15 22:00N 59°20' E 018°05'0 0.0
2017-Oct-15 21:30N 59°20' E 018°05'0 0.0
2017-Oct-15 21:00N 59°20' E 018°05'0 0.0
2017-Oct-15 20:30N 59°20' E 018°05'0 0.0
2017-Oct-15 20:00N 59°20' E 018°05'0 0.0
2017-Oct-15 19:30N 59°20' E 018°05'0 0.0
2017-Oct-15 19:00N 59°20' E 018°05'0 0.0
2017-Oct-15 18:30N 59°20' E 018°05'0 0.0
2017-Oct-15 18:00N 59°20' E 018°05'0 0.0
2017-Oct-15 17:24N 59°20' E 018°05'0 0.0
2017-Oct-15 17:00N 59°20' E 018°05'0 0.0
2017-Oct-15 16:30N 59°20' E 018°05'2 3.1
2017-Oct-15 16:00N 59°19' E 018°07'2 3.3
2017-Oct-15 15:27N 59°21' E 018°09'2 3.5
2017-Oct-15 15:00N 59°19' E 018°08'0 0.1
2017-Oct-15 14:00N 59°19' E 018°08'2 3.8
2017-Oct-15 13:30N 59°20' E 018°05'2 3.7
2017-Oct-15 13:00N 59°19' E 018°08'2 3.2
2017-Oct-15 12:30N 59°21' E 018°09'2 3.5
2017-Oct-15 12:00N 59°19' E 018°08'2 3.5
2017-Oct-15 11:30N 59°20' E 018°05'0 0.0
2017-Oct-15 10:59N 59°20' E 018°05'2 3.6
2017-Oct-15 10:31N 59°19' E 018°07'1 2.5
2017-Oct-15 10:01N 59°20' E 018°05'1 1.9
2017-Oct-15 09:30N 59°19' E 018°07'2 3.5
2017-Oct-15 08:59N 59°21' E 018°09'2 3.3
2017-Oct-15 08:30N 59°19' E 018°08'2 3.7
2017-Oct-15 08:00N 59°20' E 018°05'0 0.0
2017-Oct-15 07:30N 59°20' E 018°05'0 0.0
2017-Oct-15 07:00N 59°20' E 018°05'0 0.0
2017-Oct-15 06:24N 59°20' E 018°05'0 0.0
2017-Oct-15 05:54N 59°20' E 018°05'0 0.0
2017-Oct-15 05:30N 59°20' E 018°05'0 0.0
2017-Oct-15 04:57N 59°20' E 018°05'0 0.0
2017-Oct-15 04:30N 59°20' E 018°05'0 0.0
2017-Oct-15 04:00N 59°20' E 018°05'0 0.0
2017-Oct-15 03:30N 59°20' E 018°05'0 0.0
2017-Oct-15 03:00N 59°20' E 018°05'0 0.0
2017-Oct-15 02:24N 59°20' E 018°05'0 0.0
2017-Oct-15 02:00N 59°20' E 018°05'0 0.0
2017-Oct-15 01:30N 59°20' E 018°05'0 0.0
2017-Oct-15 01:00N 59°20' E 018°05'0 0.0
2017-Oct-15 00:30N 59°20' E 018°05'0 0.0
2017-Oct-15 00:00N 59°20' E 018°05'0 0.0
2017-Oct-14 23:30N 59°20' E 018°05'0 0.0
2017-Oct-14 23:00N 59°20' E 018°05'0 0.0
2017-Oct-14 22:30N 59°20' E 018°05'0 0.0
2017-Oct-14 22:00N 59°20' E 018°05'0 0.0
2017-Oct-14 21:30N 59°20' E 018°05'0 0.0
2017-Oct-14 21:00N 59°20' E 018°05'0 0.0
2017-Oct-14 20:30N 59°20' E 018°05'0 0.0
2017-Oct-14 20:00N 59°20' E 018°05'0 0.0
2017-Oct-14 19:30N 59°20' E 018°05'0 0.0
2017-Oct-14 19:00N 59°20' E 018°05'0 0.0
2017-Oct-14 18:30N 59°20' E 018°05'0 0.0
2017-Oct-14 18:00N 59°20' E 018°05'0 0.0
2017-Oct-14 17:30N 59°20' E 018°05'0 0.0
2017-Oct-14 17:00N 59°20' E 018°05'0 0.0
2017-Oct-14 16:30N 59°20' E 018°05'2 3.1
2017-Oct-14 16:00N 59°19' E 018°07'2 3.2
2017-Oct-14 15:30N 59°20' E 018°09'1 2.6
2017-Oct-14 15:00N 59°19' E 018°08'2 4.1
2017-Oct-14 14:30N 59°20' E 018°05'2 4.0
2017-Oct-14 14:00N 59°19' E 018°08'2 3.8
2017-Oct-14 13:29N 59°20' E 018°05'2 3.7
2017-Oct-14 13:00N 59°19' E 018°08'2 3.3
2017-Oct-14 12:30N 59°21' E 018°09'2 3.4
2017-Oct-14 12:00N 59°19' E 018°08'2 3.4
2017-Oct-14 11:28N 59°20' E 018°05'0 0.0
2017-Oct-14 10:58N 59°20' E 018°05'2 3.7
2017-Oct-14 10:30N 59°19' E 018°07'1 2.6
2017-Oct-14 10:00N 59°20' E 018°05'1 2.0
2017-Oct-14 09:30N 59°19' E 018°07'2 3.4
2017-Oct-14 08:59N 59°21' E 018°09'2 3.4
2017-Oct-14 08:30N 59°19' E 018°08'2 3.6
2017-Oct-14 07:59N 59°20' E 018°05'0 0.0
2017-Oct-14 07:29N 59°20' E 018°05'0 0.0
2017-Oct-14 06:59N 59°20' E 018°05'0 0.0
2017-Oct-14 06:29N 59°20' E 018°05'0 0.0
2017-Oct-14 05:59N 59°20' E 018°05'0 0.0
2017-Oct-14 05:29N 59°20' E 018°05'0 0.0
2017-Oct-14 04:59N 59°20' E 018°05'0 0.0
2017-Oct-14 04:29N 59°20' E 018°05'0 0.0
2017-Oct-14 03:59N 59°20' E 018°05'0 0.0
2017-Oct-14 03:23N 59°20' E 018°05'0 0.0
2017-Oct-14 02:59N 59°20' E 018°05'0 0.0
2017-Oct-14 02:29N 59°20' E 018°05'0 0.0
2017-Oct-14 01:59N 59°20' E 018°05'0 0.0
2017-Oct-14 01:29N 59°20' E 018°05'0 0.0
2017-Oct-14 00:59N 59°20' E 018°05'0 0.0
2017-Oct-14 00:29N 59°20' E 018°05'0 0.0
2017-Oct-13 23:59N 59°20' E 018°05'0 0.0
2017-Oct-13 23:29N 59°20' E 018°05'0 0.0
2017-Oct-13 22:59N 59°20' E 018°05'0 0.0
2017-Oct-13 22:26N 59°20' E 018°05'0 0.0
2017-Oct-13 21:59N 59°20' E 018°05'0 0.0
2017-Oct-13 21:29N 59°20' E 018°05'0 0.0
2017-Oct-13 20:59N 59°20' E 018°05'0 0.0
2017-Oct-13 20:29N 59°20' E 018°05'0 0.0
2017-Oct-13 19:59N 59°20' E 018°05'0 0.0
2017-Oct-13 19:29N 59°20' E 018°05'1 2.9
2017-Oct-13 19:00N 59°19' E 018°07'0 0.6
2017-Oct-13 18:30N 59°19' E 018°07'1 2.6
2017-Oct-13 18:00N 59°20' E 018°05'3 5.1
2017-Oct-13 17:30N 59°19' E 018°10'2 4.4
2017-Oct-13 17:00N 59°20' E 018°05'1 2.4
2017-Oct-13 16:30N 59°19' E 018°07'2 3.6
2017-Oct-13 16:00N 59°21' E 018°09'2 2.9
2017-Oct-13 15:29N 59°19' E 018°10'2 4.6
2017-Oct-13 15:00N 59°20' E 018°05'1 1.9
2017-Oct-13 14:30N 59°19' E 018°07'2 4.1
2017-Oct-13 14:00N 59°20' E 018°09'1 2.8
2017-Oct-13 13:31N 59°19' E 018°10'2 4.6
2017-Oct-13 13:00N 59°20' E 018°05'0 0.5
2017-Oct-13 12:30N 59°20' E 018°05'0 0.0
2017-Oct-13 12:00N 59°20' E 018°05'0 0.0
2017-Oct-13 11:30N 59°20' E 018°05'0 0.0
2017-Oct-13 11:00N 59°20' E 018°05'0 0.0
2017-Oct-13 10:30N 59°20' E 018°05'0 0.0
2017-Oct-13 10:00N 59°20' E 018°05'0 0.0
2017-Oct-13 09:30N 59°20' E 018°05'0 0.0
2017-Oct-13 09:00N 59°20' E 018°05'0 0.0
2017-Oct-13 08:30N 59°20' E 018°05'0 0.0
2017-Oct-13 08:00N 59°20' E 018°05'0 0.0
2017-Oct-13 07:30N 59°20' E 018°05'1 1.5
2017-Oct-13 07:00N 59°19' E 018°06'2 3.9
2017-Oct-13 06:30N 59°20' E 018°10'0 0.9
2017-Oct-13 06:00N 59°19' E 018°10'2 4.0
2017-Oct-13 05:30N 59°19' E 018°06'1 2.0
2017-Oct-13 04:58N 59°19' E 018°07'1 1.8
2017-Oct-13 04:29N 59°19' E 018°06'1 1.2
2017-Oct-13 03:51N 59°20' E 018°05'0 0.0
2017-Oct-13 03:27N 59°20' E 018°05'0 0.0
2017-Oct-13 02:57N 59°20' E 018°05'0 0.0
2017-Oct-13 02:30N 59°20' E 018°05'0 0.0
2017-Oct-13 01:57N 59°20' E 018°05'0 0.0
2017-Oct-13 01:30N 59°20' E 018°05'0 0.0
2017-Oct-13 01:00N 59°20' E 018°05'0 0.0
2017-Oct-13 00:30N 59°20' E 018°05'0 0.0
2017-Oct-13 00:00N 59°20' E 018°05'0 0.0
2017-Oct-12 23:30N 59°20' E 018°05'0 0.0
2017-Oct-12 23:00N 59°20' E 018°05'0 0.0
2017-Oct-12 22:30N 59°20' E 018°05'0 0.0
2017-Oct-12 22:00N 59°20' E 018°05'0 0.0
2017-Oct-12 21:30N 59°20' E 018°05'0 0.0
2017-Oct-12 21:00N 59°20' E 018°05'0 0.0
2017-Oct-12 20:30N 59°20' E 018°05'0 0.0
2017-Oct-12 19:57N 59°20' E 018°05'0 0.0
2017-Oct-12 19:27N 59°20' E 018°05'1 2.8
2017-Oct-12 19:00N 59°19' E 018°07'0 0.3
2017-Oct-12 18:29N 59°19' E 018°07'1 2.0
2017-Oct-12 18:00N 59°20' E 018°05'2 4.3
2017-Oct-12 17:29N 59°19' E 018°10'2 4.7
2017-Oct-12 16:58N 59°20' E 018°05'1 2.7
2017-Oct-12 16:30N 59°19' E 018°07'2 3.5
2017-Oct-12 15:59N 59°21' E 018°09'2 3.2
2017-Oct-12 15:30N 59°19' E 018°10'2 4.3
2017-Oct-12 15:01N 59°20' E 018°05'1 1.8
2017-Oct-12 14:29N 59°19' E 018°07'2 4.0
2017-Oct-12 14:00N 59°21' E 018°09'1 2.9
2017-Oct-12 13:30N 59°19' E 018°10'3 4.8
2017-Oct-12 12:58N 59°20' E 018°05'0 0.3
2017-Oct-12 12:30N 59°20' E 018°05'0 0.0
2017-Oct-12 11:42N 59°20' E 018°05'0 0.0
2017-Oct-12 11:30N 59°20' E 018°05'1 2.5
2017-Oct-12 11:00N 59°19' E 018°07'0 0.9
2017-Oct-12 10:30N 59°19' E 018°07'2 3.1
2017-Oct-12 10:00N 59°20' E 018°05'2 4.5
2017-Oct-12 09:29N 59°19' E 018°09'1 3.0
2017-Oct-12 09:00N 59°21' E 018°09'2 3.6
2017-Oct-12 08:30N 59°19' E 018°07'2 3.3
2017-Oct-12 07:59N 59°20' E 018°05'2 3.9
2017-Oct-12 07:28N 59°19' E 018°08'2 3.6
2017-Oct-12 07:00N 59°21' E 018°08'2 3.2
2017-Oct-12 06:29N 59°19' E 018°08'2 4.2
2017-Oct-12 05:59N 59°20' E 018°05'2 4.8
2017-Oct-12 05:28N 59°20' E 018°09'1 1.7
2017-Oct-12 05:00N 59°20' E 018°09'2 3.1
2017-Oct-12 04:30N 59°19' E 018°07'2 3.3
2017-Oct-12 04:00N 59°20' E 018°05'0 0.4
2017-Oct-12 03:24N 59°20' E 018°05'0 0.0
2017-Oct-12 03:00N 59°20' E 018°05'0 0.0
2017-Oct-12 02:24N 59°20' E 018°05'0 0.0
2017-Oct-12 02:00N 59°20' E 018°05'0 0.0
2017-Oct-12 01:30N 59°20' E 018°05'0 0.0
2017-Oct-12 01:00N 59°20' E 018°05'0 0.0
2017-Oct-12 00:24N 59°20' E 018°05'0 0.0
2017-Oct-12 00:00N 59°20' E 018°05'0 0.0
2017-Oct-11 23:30N 59°20' E 018°05'0 0.0
2017-Oct-11 23:00N 59°20' E 018°05'0 0.0
2017-Oct-11 22:30N 59°20' E 018°05'0 0.0
2017-Oct-11 22:00N 59°20' E 018°05'0 0.0
2017-Oct-11 21:24N 59°20' E 018°05'0 0.0
2017-Oct-11 20:54N 59°20' E 018°05'0 0.0
2017-Oct-11 20:30N 59°20' E 018°05'0 0.0
2017-Oct-11 20:00N 59°20' E 018°05'0 0.0
2017-Oct-11 19:30N 59°20' E 018°05'2 3.0
2017-Oct-11 18:59N 59°19' E 018°07'0 0.9
2017-Oct-11 18:30N 59°19' E 018°07'1 1.9
2017-Oct-11 18:00N 59°20' E 018°05'2 4.2
2017-Oct-11 17:30N 59°19' E 018°09'2 4.5
2017-Oct-11 16:59N 59°20' E 018°05'0 0.0
2017-Oct-10 23:59N 59°20' E 018°05'0 0.0
2017-Oct-10 23:29N 59°20' E 018°05'0 0.0
2017-Oct-10 22:59N 59°20' E 018°05'0 0.0
2017-Oct-10 22:29N 59°20' E 018°05'0 0.0
2017-Oct-10 21:59N 59°20' E 018°05'0 0.0
2017-Oct-10 21:17N 59°20' E 018°05'0 0.0
2017-Oct-10 20:59N 59°20' E 018°05'0 0.0
2017-Oct-10 20:23N 59°20' E 018°05'0 0.0
2017-Oct-10 19:59N 59°20' E 018°05'0 0.0
2017-Oct-10 19:29N 59°20' E 018°05'2 3.1
2017-Oct-10 18:59N 59°19' E 018°08'1 1.2
2017-Oct-10 18:30N 59°19' E 018°06'1 2.2
2017-Oct-10 18:00N 59°20' E 018°05'2 4.9
2017-Oct-10 17:30N 59°19' E 018°10'2 4.2
2017-Oct-10 17:00N 59°20' E 018°06'1 2.2
2017-Oct-10 16:29N 59°19' E 018°07'2 3.7
2017-Oct-10 16:00N 59°21' E 018°09'2 2.9
2017-Oct-10 15:29N 59°19' E 018°10'2 4.5
2017-Oct-10 14:59N 59°20' E 018°05'2 2.1
2017-Oct-10 14:00N 59°20' E 018°09'1 2.3
2017-Oct-10 13:29N 59°19' E 018°10'2 4.4
2017-Oct-10 13:00N 59°20' E 018°05'0 0.8
2017-Oct-10 12:28N 59°20' E 018°05'0 0.0
2017-Oct-10 11:52N 59°20' E 018°05'0 0.0
2017-Oct-10 11:28N 59°20' E 018°05'1 2.9
2017-Oct-10 11:00N 59°19' E 018°07'0 0.4
2017-Oct-10 10:30N 59°19' E 018°07'1 2.3
2017-Oct-10 10:00N 59°20' E 018°05'2 4.0
2017-Oct-10 09:29N 59°19' E 018°09'1 3.0
2017-Oct-10 09:00N 59°21' E 018°09'2 3.4
2017-Oct-10 08:29N 59°19' E 018°07'2 3.2
2017-Oct-10 07:57N 59°20' E 018°05'2 3.9
2017-Oct-10 07:30N 59°19' E 018°07'2 3.3
2017-Oct-10 06:59N 59°21' E 018°08'2 3.5
2017-Oct-10 06:30N 59°19' E 018°10'3 5.0
2017-Oct-10 05:58N 59°20' E 018°05'2 4.6
2017-Oct-10 05:30N 59°19' E 018°09'1 2.8
2017-Oct-10 04:59N 59°21' E 018°09'2 3.4
2017-Oct-10 04:28N 59°19' E 018°07'2 3.0
2017-Oct-10 03:58N 59°20' E 018°05'0 0.0
2017-Oct-10 03:22N 59°20' E 018°05'0 0.0
2017-Oct-10 02:58N 59°20' E 018°05'0 0.0
2017-Oct-10 02:28N 59°20' E 018°05'0 0.0
2017-Oct-10 01:46N 59°20' E 018°05'0 0.0
2017-Oct-10 01:28N 59°20' E 018°05'0 0.0
2017-Oct-10 00:58N 59°20' E 018°05'0 0.0
2017-Oct-10 00:22N 59°20' E 018°05'0 0.0
2017-Oct-09 23:58N 59°20' E 018°05'0 0.0
2017-Oct-09 23:28N 59°20' E 018°05'0 0.0
2017-Oct-09 22:58N 59°20' E 018°05'0 0.0
2017-Oct-09 22:28N 59°20' E 018°05'0 0.0
2017-Oct-09 21:52N 59°20' E 018°05'0 0.0
2017-Oct-09 21:28N 59°20' E 018°05'0 0.0
2017-Oct-09 20:58N 59°20' E 018°05'0 0.0
2017-Oct-09 20:28N 59°20' E 018°05'0 0.0
2017-Oct-09 19:58N 59°20' E 018°05'0 0.0
2017-Oct-09 19:28N 59°20' E 018°05'1 2.9
2017-Oct-09 19:00N 59°19' E 018°07'0 0.4
2017-Oct-09 18:30N 59°19' E 018°07'1 1.7
2017-Oct-09 18:00N 59°20' E 018°06'2 4.0
2017-Oct-09 17:30N 59°19' E 018°09'2 4.4
2017-Oct-09 17:00N 59°20' E 018°05'1 2.1
2017-Oct-09 16:30N 59°19' E 018°07'2 4.0
2017-Oct-09 16:00N 59°21' E 018°09'1 3.0
2017-Oct-09 15:30N 59°19' E 018°10'2 4.3
2017-Oct-09 14:59N 59°20' E 018°05'1 1.7
2017-Oct-09 14:30N 59°19' E 018°06'2 3.8
2017-Oct-09 14:00N 59°20' E 018°09'1 2.0
2017-Oct-09 13:30N 59°19' E 018°10'2 4.3
2017-Oct-09 13:00N 59°20' E 018°05'0 0.6
2017-Oct-09 12:25N 59°20' E 018°05'0 0.0
2017-Oct-09 11:49N 59°20' E 018°05'0 0.0
2017-Oct-09 11:24N 59°20' E 018°05'1 3.4
2017-Oct-09 10:59N 59°19' E 018°07'0 0.3
2017-Oct-09 10:30N 59°19' E 018°07'2 3.4
2017-Oct-09 10:00N 59°20' E 018°05'3 4.9
2017-Oct-09 09:29N 59°19' E 018°09'1 1.7
2017-Oct-09 08:58N 59°20' E 018°09'2 3.8
2017-Oct-09 08:30N 59°19' E 018°07'1 2.3
2017-Oct-09 07:53N 59°20' E 018°05'2 4.2
2017-Oct-09 07:28N 59°19' E 018°07'2 3.8
2017-Oct-09 07:00N 59°21' E 018°08'2 3.5
2017-Oct-09 06:30N 59°19' E 018°09'3 5.0
2017-Oct-09 05:59N 59°20' E 018°05'2 4.9
2017-Oct-09 05:28N 59°19' E 018°09'1 2.9
2017-Oct-09 04:59N 59°21' E 018°09'2 3.4
2017-Oct-09 04:30N 59°19' E 018°08'2 3.4
2017-Oct-09 03:59N 59°20' E 018°05'0 0.0
2017-Oct-09 03:17N 59°20' E 018°05'0 0.0
2017-Oct-09 02:59N 59°20' E 018°05'0 0.0
2017-Oct-09 02:29N 59°20' E 018°05'0 0.0
2017-Oct-09 01:59N 59°20' E 018°05'0 0.0
2017-Oct-09 01:29N 59°20' E 018°05'0 0.0
2017-Oct-09 00:59N 59°20' E 018°05'0 0.0
2017-Oct-09 00:29N 59°20' E 018°05'0 0.0
2017-Oct-08 23:59N 59°20' E 018°05'0 0.0
2017-Oct-08 23:23N 59°20' E 018°05'0 0.0
2017-Oct-08 22:59N 59°20' E 018°05'0 0.0
2017-Oct-08 22:29N 59°20' E 018°05'0 0.0
2017-Oct-08 21:59N 59°20' E 018°05'0 0.0
2017-Oct-08 21:29N 59°20' E 018°05'0 0.0
2017-Oct-08 20:59N 59°20' E 018°05'0 0.0
2017-Oct-08 20:29N 59°20' E 018°05'0 0.0
2017-Oct-08 19:59N 59°20' E 018°05'0 0.0
2017-Oct-08 19:29N 59°20' E 018°05'0 0.0
2017-Oct-08 18:59N 59°20' E 018°05'0 0.0
2017-Oct-08 18:23N 59°20' E 018°05'0 0.0
2017-Oct-08 17:59N 59°20' E 018°05'0 0.0
2017-Oct-08 17:29N 59°20' E 018°05'0 0.0
2017-Oct-08 16:59N 59°20' E 018°05'0 0.3
2017-Oct-08 16:29N 59°20' E 018°05'2 3.3
2017-Oct-08 15:59N 59°19' E 018°07'2 3.8
2017-Oct-08 15:30N 59°21' E 018°09'2 3.1
2017-Oct-08 14:59N 59°19' E 018°08'2 4.1
2017-Oct-08 14:30N 59°20' E 018°05'2 4.0
2017-Oct-08 14:00N 59°19' E 018°08'2 3.9
2017-Oct-08 13:29N 59°20' E 018°05'2 3.4
2017-Oct-08 13:00N 59°19' E 018°07'2 3.3
2017-Oct-08 12:30N 59°21' E 018°09'2 3.1
2017-Oct-08 12:00N 59°19' E 018°08'2 3.7
2017-Oct-08 11:30N 59°20' E 018°05'  

Dump ship's entire track history